Terminal Aerodrome Forecast
Issued by NWS

Home | Current Version | Previous Version | Text Only | Print | Product List | Glossary Off
Versions: 1 2 3 4 5 6 7 8 9 10 11 12 13 14 15 16 17 18 19 20 21

000
FTUS43 KFGF 180500
TAFBJI
TAF
KBJI 180520Z 1806/1906 13008KT 4SM BR OVC004
     FM180900 VRB05KT 4SM -TSRA BR OVC004CB
      TEMPO 1809/1813 1SM BR
     FM181500 16006KT 6SM BR OVC012
     FM181900 VRB06KT P6SM VCTS BKN025CB=

USA.gov is the U.S. government's official web portal to all federal, state and local government web resources and services.